createdAt,value
2023-02-15T00:02:02.228Z,5.03
2023-02-15T00:04:11.452Z,5.07
2023-02-15T00:06:20.349Z,5.10
2023-02-15T00:08:28.979Z,4.93
2023-02-15T00:10:37.562Z,4.07
2023-02-15T00:12:48.001Z,4.50
2023-02-15T00:14:56.634Z,5.33
2023-02-15T00:17:05.143Z,5.20
2023-02-15T00:19:14.372Z,4.20
2023-02-15T00:21:23.248Z,4.53
2023-02-15T00:23:31.673Z,4.13
2023-02-15T00:25:40.317Z,4.43
2023-02-15T00:27:50.153Z,4.50
2023-02-15T00:29:58.700Z,4.13
2023-02-15T00:32:07.783Z,4.33
2023-02-15T00:34:17.065Z,4.33
2023-02-15T00:36:25.793Z,3.77
2023-02-15T00:38:34.927Z,4.17
2023-02-15T00:40:44.038Z,4.00
2023-02-15T00:42:54.491Z,4.03
2023-02-15T00:45:03.814Z,4.30
2023-02-15T00:47:12.668Z,4.07
2023-02-15T00:49:21.079Z,4.13
2023-02-15T00:51:29.671Z,4.67
2023-02-15T00:53:38.410Z,3.97
2023-02-15T00:55:47.096Z,3.70
2023-02-15T00:57:56.990Z,3.83
2023-02-15T01:00:06.028Z,4.00
2023-02-15T01:02:14.478Z,4.27
2023-02-15T01:04:22.994Z,4.70
2023-02-15T01:06:31.489Z,4.10
2023-02-15T01:08:40.336Z,3.03
2023-02-15T01:10:49.249Z,3.97
2023-02-15T01:12:59.473Z,3.77
2023-02-15T01:15:08.067Z,3.67
2023-02-15T01:17:16.497Z,4.07
2023-02-15T01:19:25.104Z,4.10
2023-02-15T01:21:35.422Z,3.67
2023-02-15T01:23:44.453Z,3.43
2023-02-15T01:25:53.101Z,3.83
2023-02-15T01:28:03.402Z,2.70
2023-02-15T01:30:12.462Z,3.57
2023-02-15T01:32:21.209Z,3.80
2023-02-15T01:34:29.776Z,3.60
2023-02-15T01:36:38.606Z,3.60
2023-02-15T01:38:47.315Z,3.83
2023-02-15T01:41:16.449Z,3.77
2023-02-15T01:43:44.488Z,4.43
2023-02-15T01:45:53.098Z,3.63
2023-02-15T01:48:04.858Z,3.30
2023-02-15T01:50:15.419Z,2.97
2023-02-15T01:52:23.917Z,3.47
2023-02-15T01:54:35.027Z,4.00
2023-02-15T01:56:44.445Z,2.93
2023-02-15T01:58:56.507Z,3.47
2023-02-15T02:01:06.909Z,4.00
2023-02-15T02:03:15.768Z,3.13
2023-02-15T02:05:24.387Z,3.90
2023-02-15T02:07:36.346Z,3.50
2023-02-15T02:09:45.321Z,3.50
2023-02-15T02:11:55.586Z,2.30
2023-02-15T02:14:07.948Z,4.00
2023-02-15T02:16:19.398Z,4.00
2023-02-15T02:18:36.292Z,3.50
2023-02-15T02:21:03.002Z,3.33
2023-02-15T02:23:19.305Z,3.60
2023-02-15T02:25:35.102Z,3.47
2023-02-15T02:27:45.734Z,3.03
2023-02-15T02:30:08.200Z,3.57
2023-02-15T02:32:25.966Z,3.60
2023-02-15T02:34:39.393Z,3.07
2023-02-15T02:36:51.457Z,2.63
2023-02-15T02:39:08.042Z,3.60
2023-02-15T02:41:23.712Z,3.10
2023-02-15T02:43:35.285Z,4.23
2023-02-15T02:45:46.416Z,3.60
2023-02-15T02:47:57.651Z,3.30
2023-02-15T02:50:09.118Z,4.10
2023-02-15T02:52:41.119Z,3.27
2023-02-15T02:54:50.022Z,3.37
2023-02-15T02:56:59.312Z,4.20
2023-02-15T02:59:09.873Z,4.07
2023-02-15T03:01:21.565Z,3.60
2023-02-15T03:03:31.679Z,3.70
2023-02-15T03:05:45.594Z,3.00
2023-02-15T03:07:55.132Z,3.97
2023-02-15T03:10:05.198Z,3.50
2023-02-15T03:12:16.136Z,3.23
2023-02-15T03:14:24.600Z,3.43
2023-02-15T03:16:32.287Z,3.70
2023-02-15T03:18:42.209Z,3.20
2023-02-15T03:20:52.456Z,3.50
2023-02-15T03:23:02.687Z,4.07
2023-02-15T03:25:13.824Z,3.73
2023-02-15T03:27:24.601Z,3.87
2023-02-15T03:29:33.725Z,3.80
2023-02-15T03:31:44.251Z,3.87
2023-02-15T03:33:56.724Z,3.50
2023-02-15T03:36:11.476Z,3.53
2023-02-15T03:38:23.489Z,3.30
2023-02-15T03:40:51.209Z,3.73
2023-02-15T03:43:03.016Z,3.90
2023-02-15T03:45:13.268Z,3.63
2023-02-15T03:47:23.297Z,3.70
2023-02-15T03:49:35.707Z,4.27
2023-02-15T03:51:46.045Z,3.47
2023-02-15T03:53:55.568Z,3.90
2023-02-15T03:56:04.500Z,3.40
2023-02-15T03:58:30.988Z,3.90
2023-02-15T04:01:00.090Z,3.83
2023-02-15T04:03:23.989Z,3.67
2023-02-15T04:05:32.567Z,3.47
2023-02-15T04:07:45.401Z,3.90
2023-02-15T04:10:17.085Z,4.13
2023-02-15T04:12:25.692Z,3.80
2023-02-15T04:14:51.919Z,4.40
2023-02-15T04:17:00.412Z,3.70
2023-02-15T04:19:26.511Z,4.40
2023-02-15T04:21:52.610Z,3.90
2023-02-15T04:24:21.772Z,3.80
2023-02-15T04:26:30.234Z,4.30
2023-02-15T04:28:38.858Z,4.10
2023-02-15T04:30:47.695Z,3.83
2023-02-15T04:32:57.520Z,4.37
2023-02-15T04:35:06.477Z,4.40
2023-02-15T04:37:15.018Z,4.27
2023-02-15T04:39:24.980Z,4.13
2023-02-15T04:41:33.421Z,4.70
2023-02-15T04:43:42.016Z,4.43
2023-02-15T04:45:52.103Z,4.83
2023-02-15T04:48:01.077Z,4.17
2023-02-15T04:50:10.534Z,4.30
2023-02-15T04:52:19.516Z,4.73
2023-02-15T04:54:29.599Z,4.63
2023-02-15T04:56:40.412Z,4.70
2023-02-15T04:58:48.899Z,5.33
2023-02-15T05:00:58.352Z,4.50
2023-02-15T05:03:06.798Z,4.60
2023-02-15T05:05:16.210Z,4.80
2023-02-15T05:07:24.925Z,4.27
2023-02-15T05:09:34.789Z,5.27
2023-02-15T05:11:43.306Z,4.90
2023-02-15T05:13:51.745Z,4.83
2023-02-15T05:16:01.063Z,5.37
2023-02-15T05:18:10.283Z,5.43
2023-02-15T05:20:19.603Z,5.33
2023-02-15T05:22:28.433Z,5.20
2023-02-15T05:24:56.087Z,5.80
2023-02-15T05:27:27.692Z,5.50
2023-02-15T05:29:36.488Z,5.40
2023-02-15T05:31:48.591Z,5.57
2023-02-15T05:33:57.500Z,5.50
2023-02-15T05:36:06.672Z,6.50
2023-02-15T05:38:15.400Z,6.00
2023-02-15T05:40:25.897Z,5.70
2023-02-15T05:42:34.492Z,6.37
2023-02-15T05:44:43.166Z,6.07
2023-02-15T05:46:51.731Z,5.90
2023-02-15T05:49:00.277Z,5.30
2023-02-15T05:51:09.494Z,6.30
2023-02-15T05:53:18.301Z,6.33
2023-02-15T05:55:28.243Z,6.37
2023-02-15T05:57:36.728Z,5.83
2023-02-15T05:59:45.342Z,6.50
2023-02-15T06:01:54.436Z,6.83
2023-02-15T06:04:03.075Z,7.60
2023-02-15T06:06:11.743Z,6.97
2023-02-15T06:08:20.272Z,6.80
2023-02-15T06:10:30.222Z,5.77
2023-02-15T06:12:39.096Z,6.30
2023-02-15T06:14:47.525Z,6.43
2023-02-15T06:16:56.073Z,7.50
2023-02-15T06:19:04.836Z,6.80
2023-02-15T06:21:13.519Z,6.93
2023-02-15T06:23:22.011Z,7.33
2023-02-15T06:25:31.882Z,7.43
2023-02-15T06:27:40.658Z,6.43
2023-02-15T06:29:49.230Z,7.60
2023-02-15T06:31:57.826Z,7.83
2023-02-15T06:34:07.167Z,7.10
2023-02-15T06:36:16.033Z,8.00
2023-02-15T06:38:24.799Z,6.73
2023-02-15T06:40:34.786Z,5.50
2023-02-15T06:42:44.625Z,6.93
2023-02-15T06:44:53.085Z,6.57
2023-02-15T06:47:02.229Z,6.73
2023-02-15T06:49:11.247Z,6.77
2023-02-15T06:51:19.839Z,7.13
2023-02-15T06:53:28.401Z,7.53
2023-02-15T06:55:38.330Z,6.90
2023-02-15T06:57:48.865Z,7.07
2023-02-15T06:59:59.480Z,6.80
2023-02-15T07:02:08.285Z,7.23
2023-02-15T07:04:17.085Z,6.73
2023-02-15T07:06:25.680Z,7.03
2023-02-15T07:08:34.304Z,7.00
2023-02-15T07:10:46.833Z,7.47
2023-02-15T07:12:54.426Z,7.13
2023-02-15T07:15:05.401Z,6.67
2023-02-15T07:17:34.465Z,5.93
2023-02-15T07:19:42.343Z,6.70
2023-02-15T07:21:51.042Z,6.80
2023-02-15T07:24:00.142Z,6.40
2023-02-15T07:26:10.242Z,6.90
2023-02-15T07:28:18.955Z,6.37
2023-02-15T07:30:27.592Z,6.57
2023-02-15T07:32:36.781Z,6.80
2023-02-15T07:34:45.455Z,7.10
2023-02-15T07:36:54.842Z,6.93
2023-02-15T07:39:03.266Z,6.40
2023-02-15T07:41:14.542Z,6.50
2023-02-15T07:43:23.075Z,6.60
2023-02-15T07:45:31.915Z,6.63
2023-02-15T07:47:40.435Z,6.77
2023-02-15T07:49:50.378Z,6.47
2023-02-15T07:51:58.957Z,5.90
2023-02-15T07:54:07.368Z,6.07
2023-02-15T07:56:17.737Z,7.10
2023-02-15T07:58:46.176Z,6.20
2023-02-15T08:01:02.846Z,6.80
2023-02-15T08:03:17.448Z,6.20
2023-02-15T08:05:26.013Z,6.63
2023-02-15T08:07:34.551Z,6.70
2023-02-15T08:09:43.120Z,6.00
2023-02-15T08:11:53.121Z,5.67
2023-02-15T08:14:03.717Z,6.40
2023-02-15T08:16:14.273Z,6.50
2023-02-15T08:18:22.862Z,6.43
2023-02-15T08:20:31.589Z,6.50
2023-02-15T08:22:40.072Z,6.60
2023-02-15T08:24:49.362Z,5.90
2023-02-15T08:26:59.609Z,6.70
2023-02-15T08:29:09.014Z,6.30
2023-02-15T08:31:17.959Z,5.70
2023-02-15T08:33:26.741Z,6.87
2023-02-15T08:35:36.551Z,6.77
2023-02-15T08:37:46.499Z,6.63
2023-02-15T08:39:55.013Z,6.27
2023-02-15T08:42:06.135Z,5.57
2023-02-15T08:44:14.961Z,6.13
2023-02-15T08:46:24.150Z,5.53
2023-02-15T08:48:33.226Z,6.43
2023-02-15T08:50:41.805Z,5.27
2023-02-15T08:52:50.408Z,5.50
2023-02-15T08:54:58.890Z,5.57
2023-02-15T08:57:09.176Z,5.53
2023-02-15T08:59:19.143Z,5.50
2023-02-15T09:01:29.079Z,6.50
2023-02-15T09:03:38.070Z,6.23
2023-02-15T09:05:46.552Z,5.53
2023-02-15T09:07:55.390Z,6.10
2023-02-15T09:10:03.923Z,5.60
2023-02-15T09:12:13.904Z,5.63
2023-02-15T09:14:25.461Z,5.43
2023-02-15T09:16:35.001Z,4.87
2023-02-15T09:18:43.686Z,5.43
2023-02-15T09:20:52.244Z,5.10
2023-02-15T09:23:00.968Z,5.23
2023-02-15T09:25:09.681Z,5.33
2023-02-15T09:27:19.761Z,5.03
2023-02-15T09:29:28.221Z,4.80
2023-02-15T09:31:39.802Z,4.93
2023-02-15T09:33:49.381Z,4.73
2023-02-15T09:35:58.348Z,5.00
2023-02-15T09:38:06.785Z,4.67
2023-02-15T09:40:17.169Z,5.10
2023-02-15T09:42:44.511Z,5.33
2023-02-15T09:45:04.646Z,4.47
2023-02-15T09:47:32.109Z,4.90
2023-02-15T09:49:46.122Z,5.23
2023-02-15T09:52:09.453Z,4.03
2023-02-15T09:54:32.754Z,4.40
2023-02-15T09:56:42.234Z,4.57
2023-02-15T09:58:56.418Z,4.27
2023-02-15T10:01:14.630Z,4.60
2023-02-15T10:03:33.805Z,4.03
2023-02-15T10:05:46.902Z,4.77
2023-02-15T10:08:13.801Z,4.73
2023-02-15T10:10:26.452Z,4.73
2023-02-15T10:12:41.704Z,3.97
2023-02-15T10:14:59.261Z,3.90
2023-02-15T10:17:20.668Z,4.67
2023-02-15T10:19:35.833Z,4.27
2023-02-15T10:21:48.782Z,4.43
2023-02-15T10:24:05.256Z,4.63
2023-02-15T10:26:18.280Z,4.50
2023-02-15T10:28:29.402Z,4.33
2023-02-15T10:30:43.385Z,4.47
2023-02-15T10:33:01.928Z,4.53
2023-02-15T10:35:17.104Z,4.73
2023-02-15T10:37:43.650Z,4.53
2023-02-15T10:39:56.486Z,4.30
2023-02-15T10:42:07.712Z,3.97
2023-02-15T10:44:28.070Z,4.50
2023-02-15T10:46:45.544Z,4.03
2023-02-15T10:49:10.414Z,4.03
2023-02-15T10:51:22.732Z,4.33
2023-02-15T10:53:46.824Z,4.17
2023-02-15T10:55:59.188Z,4.50
2023-02-15T10:58:11.719Z,4.63
2023-02-15T11:00:22.400Z,4.37
2023-02-15T11:02:38.416Z,4.10
2023-02-15T11:04:54.421Z,4.20
2023-02-15T11:07:06.261Z,4.60
2023-02-15T11:09:16.606Z,4.47
2023-02-15T11:11:26.978Z,4.57
2023-02-15T11:13:36.676Z,4.80
2023-02-15T11:15:47.688Z,4.43
2023-02-15T11:17:59.601Z,4.50
2023-02-15T11:20:18.886Z,4.87
2023-02-15T11:22:27.824Z,5.00
2023-02-15T11:24:39.121Z,4.43
2023-02-15T11:26:50.602Z,4.50
2023-02-15T11:29:00.256Z,4.30
2023-02-15T11:31:15.430Z,4.33
2023-02-15T11:33:26.251Z,5.33
2023-02-15T11:35:39.615Z,4.77
2023-02-15T11:37:51.608Z,4.87
2023-02-15T11:40:01.486Z,4.77
2023-02-15T11:42:14.199Z,4.97
2023-02-15T11:44:25.331Z,4.73
2023-02-15T11:46:34.501Z,4.83
2023-02-15T11:48:44.117Z,5.47
2023-02-15T11:50:54.115Z,4.77
2023-02-15T11:53:03.992Z,4.67
2023-02-15T11:55:15.749Z,5.17
2023-02-15T11:57:28.234Z,5.30
2023-02-15T11:59:39.341Z,4.80
2023-02-15T12:01:48.504Z,4.60
2023-02-15T12:03:57.940Z,4.47
2023-02-15T12:06:09.754Z,4.40
2023-02-15T12:08:19.749Z,4.87
2023-02-15T12:10:29.099Z,5.23
2023-02-15T12:12:38.375Z,5.43
2023-02-15T12:14:50.455Z,4.83
2023-02-15T12:16:59.363Z,5.27
2023-02-15T12:19:08.216Z,5.53
2023-02-15T12:21:28.614Z,4.73
2023-02-15T12:23:38.084Z,4.80
2023-02-15T12:25:52.877Z,4.50
2023-02-15T12:28:01.476Z,5.10
2023-02-15T12:30:19.501Z,4.70
2023-02-15T12:32:28.677Z,4.73
2023-02-15T12:34:40.617Z,4.87
2023-02-15T12:36:51.822Z,5.07
2023-02-15T12:39:07.617Z,4.60
2023-02-15T12:41:25.530Z,4.93
2023-02-15T12:43:35.529Z,4.93
2023-02-15T12:45:44.050Z,4.50
2023-02-15T12:48:10.629Z,5.37
2023-02-15T12:50:27.038Z,4.93
2023-02-15T12:52:36.915Z,4.90
2023-02-15T12:54:45.962Z,4.30
2023-02-15T12:56:54.818Z,4.97
2023-02-15T12:59:07.557Z,4.80
2023-02-15T13:01:17.772Z,4.37
2023-02-15T13:03:26.542Z,4.97
2023-02-15T13:05:37.002Z,5.13
2023-02-15T13:07:51.473Z,5.07
2023-02-15T13:10:00.051Z,4.90
2023-02-15T13:12:19.190Z,5.37
2023-02-15T13:14:32.289Z,4.97
2023-02-15T13:16:42.018Z,5.90
2023-02-15T13:18:53.617Z,5.77
2023-02-15T13:21:08.216Z,5.93
2023-02-15T13:23:24.635Z,5.93
2023-02-15T13:25:36.196Z,5.60
2023-02-15T13:27:46.254Z,5.90
2023-02-15T13:29:59.267Z,5.70
2023-02-15T13:32:09.794Z,4.67
2023-02-15T13:34:20.829Z,5.00
2023-02-15T13:36:32.450Z,6.00
2023-02-15T13:38:48.747Z,5.17
2023-02-15T13:40:58.931Z,6.03
2023-02-15T13:43:16.508Z,5.93
2023-02-15T13:45:34.608Z,5.97
2023-02-15T13:47:48.322Z,6.37
2023-02-15T13:50:06.350Z,5.90
2023-02-15T13:52:21.122Z,6.03
2023-02-15T13:54:39.517Z,6.00
2023-02-15T13:56:55.494Z,6.40
2023-02-15T13:59:20.347Z,6.23
2023-02-15T14:01:34.777Z,5.53
2023-02-15T14:03:53.016Z,6.13
2023-02-15T14:06:16.594Z,5.53
2023-02-15T14:08:31.138Z,5.60
2023-02-15T14:10:46.561Z,5.87
2023-02-15T14:13:02.051Z,5.77
2023-02-15T14:15:25.703Z,6.03
2023-02-15T14:17:43.411Z,5.77
2023-02-15T14:19:55.984Z,5.57
2023-02-15T14:22:09.400Z,6.30
2023-02-15T14:24:25.201Z,6.57
2023-02-15T14:26:42.863Z,5.67
2023-02-15T14:28:53.997Z,6.00
2023-02-15T14:31:03.302Z,5.90
2023-02-15T14:33:21.100Z,5.13
2023-02-15T14:35:31.257Z,5.80
2023-02-15T14:37:44.849Z,5.83
2023-02-15T14:40:16.389Z,5.60
2023-02-15T14:42:28.866Z,6.30
2023-02-15T14:44:41.211Z,5.80
2023-02-15T14:46:53.230Z,5.63
2023-02-15T14:49:08.208Z,6.00
2023-02-15T14:51:32.023Z,4.67
2023-02-15T14:53:43.492Z,6.20
2023-02-15T14:56:08.260Z,5.10
2023-02-15T14:58:18.307Z,5.53
2023-02-15T15:00:41.184Z,5.80
2023-02-15T15:02:51.110Z,5.27
2023-02-15T15:05:02.136Z,5.33
2023-02-15T15:07:17.092Z,5.23
2023-02-15T15:09:27.980Z,5.73
2023-02-15T15:11:43.816Z,5.63
2023-02-15T15:13:58.423Z,4.93
2023-02-15T15:16:25.424Z,5.30
2023-02-15T15:18:46.869Z,4.80
2023-02-15T15:20:55.370Z,5.27
2023-02-15T15:23:22.005Z,5.60
2023-02-15T15:25:48.257Z,4.73
2023-02-15T15:27:57.606Z,4.87
2023-02-15T15:30:30.399Z,4.37
2023-02-15T15:32:42.031Z,4.67
2023-02-15T15:35:06.030Z,4.60
2023-02-15T15:37:44.800Z,4.87
2023-02-15T15:40:12.128Z,4.80
2023-02-15T15:42:32.356Z,4.20
2023-02-15T15:45:05.946Z,4.17
2023-02-15T15:47:21.609Z,3.83
2023-02-15T15:49:33.229Z,4.10
2023-02-15T15:51:42.818Z,4.33
2023-02-15T15:53:54.353Z,3.40
2023-02-15T15:56:05.943Z,4.67
2023-02-15T15:58:17.305Z,4.20
2023-02-15T16:00:31.850Z,4.17
2023-02-15T16:02:52.684Z,4.03
2023-02-15T16:05:10.717Z,3.60
2023-02-15T16:07:27.447Z,4.90
2023-02-15T16:09:35.950Z,4.93
2023-02-15T16:11:45.882Z,4.03
2023-02-15T16:13:54.889Z,4.03
2023-02-15T16:16:03.988Z,3.60
2023-02-15T16:18:16.316Z,4.37
2023-02-15T16:20:27.802Z,3.57
2023-02-15T16:22:37.846Z,3.37
2023-02-15T16:25:04.183Z,3.90
2023-02-15T16:27:26.995Z,3.73
2023-02-15T16:29:36.476Z,3.50
2023-02-15T16:31:45.198Z,3.77
2023-02-15T16:33:56.078Z,3.90
2023-02-15T16:36:08.825Z,3.90
2023-02-15T16:38:18.161Z,4.33
2023-02-15T16:40:34.496Z,4.30
2023-02-15T16:42:42.993Z,4.27
2023-02-15T16:44:53.267Z,3.60
2023-02-15T16:47:02.301Z,4.00
2023-02-15T16:49:17.259Z,4.23
2023-02-15T16:51:28.925Z,3.63
2023-02-15T16:53:37.356Z,4.13
2023-02-15T16:55:46.106Z,4.37
2023-02-15T16:57:58.638Z,3.93
2023-02-15T17:00:11.365Z,3.53
2023-02-15T17:02:43.091Z,3.80
2023-02-15T17:05:06.113Z,3.03
2023-02-15T17:07:21.134Z,3.57
2023-02-15T17:09:29.828Z,3.53
2023-02-15T17:11:39.185Z,3.70
2023-02-15T17:14:03.596Z,3.67
2023-02-15T17:16:26.363Z,3.30
2023-02-15T17:18:36.577Z,4.07
2023-02-15T17:20:45.818Z,4.20
2023-02-15T17:22:56.200Z,3.97
2023-02-15T17:25:05.848Z,4.20
2023-02-15T17:27:16.129Z,4.40
2023-02-15T17:29:26.471Z,4.90
2023-02-15T17:31:35.889Z,4.50
2023-02-15T17:33:44.694Z,5.03
2023-02-15T17:36:07.475Z,3.90
2023-02-15T17:38:20.863Z,4.70
2023-02-15T17:40:30.483Z,4.47
2023-02-15T17:42:39.011Z,5.13
2023-02-15T17:44:47.511Z,4.90
2023-02-15T17:46:56.787Z,4.93
2023-02-15T17:49:05.940Z,4.50
2023-02-15T17:51:15.063Z,4.73
2023-02-15T17:53:25.885Z,5.10
2023-02-15T17:55:36.803Z,4.47
2023-02-15T17:57:45.330Z,5.93
2023-02-15T18:00:11.639Z,4.70
2023-02-15T18:02:37.742Z,5.27
2023-02-15T18:05:04.046Z,5.30
2023-02-15T18:07:32.500Z,4.97
2023-02-15T18:10:02.199Z,4.80
2023-02-15T18:12:20.262Z,4.93
2023-02-15T18:14:29.058Z,5.00
2023-02-15T18:16:39.773Z,4.70
2023-02-15T18:18:48.436Z,5.97
2023-02-15T18:20:56.911Z,4.70
2023-02-15T18:23:05.790Z,5.87
2023-02-15T18:25:16.925Z,5.67
2023-02-15T18:27:25.474Z,5.13
2023-02-15T18:29:34.060Z,5.50
2023-02-15T18:31:43.853Z,5.50
2023-02-15T18:33:54.680Z,5.97
2023-02-15T18:36:03.641Z,5.00
2023-02-15T18:38:13.185Z,4.97
2023-02-15T18:40:24.665Z,4.80
2023-02-15T18:42:34.388Z,6.03
2023-02-15T18:44:44.466Z,6.07
2023-02-15T18:46:53.334Z,5.77
2023-02-15T18:49:02.215Z,7.13
2023-02-15T18:51:16.518Z,6.33
2023-02-15T18:53:25.066Z,8.07
2023-02-15T18:55:35.509Z,6.43
2023-02-15T18:57:45.940Z,7.20
2023-02-15T18:59:54.444Z,7.57
2023-02-15T19:02:03.015Z,6.23
2023-02-15T19:04:11.457Z,6.00
2023-02-15T19:06:21.864Z,5.93
2023-02-15T19:08:30.563Z,5.90
2023-02-15T19:10:40.429Z,5.10
2023-02-15T19:12:49.828Z,6.07
2023-02-15T19:14:58.429Z,6.73
2023-02-15T19:17:14.577Z,6.33
2023-02-15T19:19:23.034Z,6.53
2023-02-15T19:21:32.809Z,5.87
2023-02-15T19:23:41.233Z,6.57
2023-02-15T19:25:51.663Z,5.60
2023-02-15T19:28:00.456Z,5.03
2023-02-15T19:30:16.521Z,5.43
2023-02-15T19:32:25.188Z,5.73
2023-02-15T19:34:33.634Z,6.00
2023-02-15T19:36:42.616Z,6.13
2023-02-15T19:38:51.961Z,5.97
2023-02-15T19:41:04.888Z,5.93
2023-02-15T19:43:17.204Z,6.43
2023-02-15T19:45:26.576Z,6.10
2023-02-15T19:47:35.033Z,6.03
2023-02-15T19:49:44.165Z,5.80
2023-02-15T19:51:52.575Z,5.93
2023-02-15T19:54:01.933Z,6.03
2023-02-15T19:56:14.535Z,6.03
2023-02-15T19:58:23.241Z,6.53
2023-02-15T20:00:32.809Z,6.07
2023-02-15T20:02:41.389Z,7.00
2023-02-15T20:04:49.915Z,6.30
2023-02-15T20:07:00.947Z,6.40
2023-02-15T20:09:10.269Z,6.67
2023-02-15T20:11:21.889Z,6.53
2023-02-15T20:13:30.931Z,6.40
2023-02-15T20:15:41.262Z,7.07
2023-02-15T20:17:49.916Z,7.37
2023-02-15T20:19:58.437Z,7.17
2023-02-15T20:22:07.154Z,7.23
2023-02-15T20:24:16.350Z,7.30
2023-02-15T20:26:29.790Z,7.17
2023-02-15T20:28:38.470Z,7.03
2023-02-15T20:30:47.176Z,6.83
2023-02-15T20:32:55.933Z,7.93
2023-02-15T20:35:04.469Z,8.40
2023-02-15T20:37:20.804Z,7.97
2023-02-15T20:39:30.885Z,7.00
2023-02-15T20:41:46.907Z,7.07
2023-02-15T20:43:55.685Z,7.33
2023-02-15T20:46:04.560Z,7.17
2023-02-15T20:48:13.322Z,7.33
2023-02-15T20:50:22.986Z,7.13
2023-02-15T20:52:31.448Z,8.17
2023-02-15T20:54:40.036Z,7.03
2023-02-15T20:56:50.101Z,7.87
2023-02-15T20:58:58.786Z,6.97
2023-02-15T21:01:08.063Z,7.40
2023-02-15T21:03:16.876Z,7.83
2023-02-15T21:05:26.198Z,8.10
2023-02-15T21:07:34.868Z,7.80
2023-02-15T21:09:43.374Z,7.87
2023-02-15T21:11:55.400Z,7.70
2023-02-15T21:14:03.884Z,7.03
2023-02-15T21:16:12.581Z,8.43
2023-02-15T21:18:22.550Z,8.07
2023-02-15T21:20:33.249Z,7.40
2023-02-15T21:22:42.318Z,8.70
2023-02-15T21:24:52.338Z,8.03
2023-02-15T21:27:02.868Z,7.50
2023-02-15T21:29:13.773Z,8.00
2023-02-15T21:31:23.269Z,8.07
2023-02-15T21:33:31.795Z,8.20
2023-02-15T21:35:40.524Z,6.87
2023-02-15T21:37:50.550Z,7.70
2023-02-15T21:39:59.121Z,8.03
2023-02-15T21:42:30.197Z,8.77
2023-02-15T21:44:56.281Z,7.63
2023-02-15T21:47:22.540Z,7.93
2023-02-15T21:49:31.267Z,7.20
2023-02-15T21:51:57.621Z,8.00
2023-02-15T21:54:06.843Z,7.97
2023-02-15T21:56:17.791Z,7.47
2023-02-15T21:58:29.840Z,7.47
2023-02-15T22:00:39.015Z,7.73
2023-02-15T22:02:48.698Z,6.93
2023-02-15T22:04:58.059Z,7.63
2023-02-15T22:07:07.133Z,7.97
2023-02-15T22:09:17.873Z,7.40
2023-02-15T22:11:26.379Z,7.10
2023-02-15T22:13:37.151Z,6.80
2023-02-15T22:15:48.326Z,7.10
2023-02-15T22:17:57.721Z,8.13
2023-02-15T22:20:14.146Z,7.37
2023-02-15T22:22:23.294Z,6.70
2023-02-15T22:24:32.109Z,7.13
2023-02-15T22:26:41.280Z,7.20
2023-02-15T22:28:52.071Z,7.77
2023-02-15T22:31:00.790Z,7.23
2023-02-15T22:33:13.063Z,7.50
2023-02-15T22:35:24.593Z,7.40
2023-02-15T22:37:33.827Z,6.97
2023-02-15T22:39:43.463Z,6.93
2023-02-15T22:41:54.243Z,6.70
2023-02-15T22:44:05.137Z,7.03
2023-02-15T22:46:17.076Z,6.83
2023-02-15T22:48:26.349Z,6.50
2023-02-15T22:50:37.806Z,7.13
2023-02-15T22:52:46.858Z,7.13
2023-02-15T22:54:55.870Z,7.33
2023-02-15T22:57:04.506Z,6.30
2023-02-15T22:59:18.574Z,6.90
2023-02-15T23:01:32.003Z,7.03
2023-02-15T23:03:40.672Z,6.70
2023-02-15T23:05:49.592Z,6.97
2023-02-15T23:07:58.960Z,6.63
2023-02-15T23:10:21.085Z,7.03
2023-02-15T23:12:53.204Z,6.07
2023-02-15T23:15:03.769Z,7.57
2023-02-15T23:17:12.438Z,6.97
2023-02-15T23:19:21.520Z,7.27
2023-02-15T23:21:31.626Z,7.17
2023-02-15T23:23:42.289Z,7.37
2023-02-15T23:25:51.400Z,8.00
2023-02-15T23:28:00.552Z,7.03
2023-02-15T23:30:16.874Z,7.97
2023-02-15T23:32:25.926Z,7.17
2023-02-15T23:34:34.586Z,7.27
2023-02-15T23:36:44.454Z,7.47
2023-02-15T23:38:53.250Z,7.03
2023-02-15T23:41:20.587Z,7.57
2023-02-15T23:43:29.767Z,7.30
2023-02-15T23:45:41.025Z,7.90
2023-02-15T23:48:07.812Z,8.10
2023-02-15T23:50:19.169Z,8.17
2023-02-15T23:52:27.873Z,8.30
2023-02-15T23:54:36.983Z,8.03
2023-02-15T23:56:47.614Z,7.97
2023-02-15T23:58:56.553Z,7.87
